Time;durP1;ratioP1;P1;durP2;ratioP2;P2;SDS_P1;SDS_P2;PMS_P1;PMS_P2;Temp;Humidity;BMP_temperature;BMP_pressure;BME280_temperature;BME280_humidity;BME280_pressure;Samples;Min_cycle;Max_cycle;Signal;HPM_P1;HPM_P2
2022/11/12 00:01:12;;;;;;;4.00;3.70;;;;;;;10.83;100.00;99632.59;5031485;28;20174;-55
2022/11/12 00:03:37;;;;;;;3.70;3.40;;;;;;;10.90;100.00;99633.94;5031789;28;20623;-55
2022/11/12 00:06:03;;;;;;;3.75;3.38;;;;;;;11.07;100.00;99639.09;5030059;28;20218;-55
2022/11/12 00:08:28;;;;;;;3.65;3.35;;;;;;;11.23;100.00;99628.78;5031625;28;20659;-55
2022/11/12 00:10:54;;;;;;;4.43;3.47;;;;;;;11.30;100.00;99628.41;5031624;28;20608;-55
2022/11/12 00:13:19;;;;;;;3.60;3.30;;;;;;;11.37;100.00;99618.56;5031541;28;20639;-55
2022/11/12 00:15:45;;;;;;;3.88;3.58;;;;;;;11.29;100.00;99624.13;5031532;28;20221;-55
2022/11/12 00:18:11;;;;;;;3.80;3.50;;;;;;;11.12;100.00;99618.13;5031479;28;20642;-56
2022/11/12 00:20:36;;;;;;;3.70;3.40;;;;;;;11.07;100.00;99608.03;5031633;28;20186;-55
2022/11/12 00:23:02;;;;;;;4.03;3.63;;;;;;;10.80;100.00;99611.19;5031846;28;20185;-55
2022/11/12 00:25:28;;;;;;;4.32;3.92;;;;;;;10.73;100.00;99615.00;5030083;28;20652;-55
2022/11/12 00:28:03;;;;;;;4.07;3.78;;;;;;;10.82;100.00;99614.53;5031967;28;20182;-55
2022/11/12 00:30:29;;;;;;;5.88;3.78;;;;;;;10.84;100.00;99612.69;5031692;28;20245;-55
2022/11/12 00:32:55;;;;;;;4.15;3.75;;;;;;;10.95;100.00;99607.81;5031590;28;20281;-55
2022/11/12 00:35:20;;;;;;;3.75;3.38;;;;;;;10.99;100.00;99611.91;5031426;28;20185;-55
2022/11/12 00:37:46;;;;;;;4.07;3.70;;;;;;;10.82;100.00;99610.19;5031885;28;20540;-55
2022/11/12 00:40:11;;;;;;;4.15;3.80;;;;;;;10.76;100.00;99620.88;5031588;28;20565;-55
2022/11/12 00:42:37;;;;;;;4.53;4.13;;;;;;;10.67;100.00;99616.13;5031338;28;20616;-55
2022/11/12 00:45:02;;;;;;;5.53;5.00;;;;;;;10.49;100.00;99608.44;5031306;28;20182;-54
2022/11/12 00:47:28;;;;;;;4.53;4.13;;;;;;;10.41;100.00;99600.22;5031212;28;20221;-55
2022/11/12 00:49:53;;;;;;;4.68;4.18;;;;;;;10.45;100.00;99614.69;5031195;28;20237;-55
2022/11/12 00:52:18;;;;;;;4.75;4.15;;;;;;;10.44;100.00;99610.44;5031214;28;20244;-55
2022/11/12 00:54:44;;;;;;;4.65;4.18;;;;;;;10.53;100.00;99605.63;5031509;28;20178;-55
2022/11/12 00:57:09;;;;;;;4.95;4.43;;;;;;;10.56;100.00;99607.25;5031489;28;20221;-55
2022/11/12 00:59:34;;;;;;;5.95;3.95;;;;;;;10.69;100.00;99605.72;5031124;28;20698;-55
2022/11/12 01:02:00;;;;;;;5.38;4.30;;;;;;;10.69;100.00;99603.13;5031436;28;20183;-55
2022/11/12 01:04:25;;;;;;;4.35;3.88;;;;;;;10.86;100.00;99600.53;5031513;28;20198;-55
2022/11/12 01:06:51;;;;;;;5.50;4.25;;;;;;;10.96;100.00;99599.13;5031078;28;20214;-55
2022/11/12 01:09:16;;;;;;;4.22;3.83;;;;;;;11.11;100.00;99600.94;5030174;28;20179;-55
2022/11/12 01:11:42;;;;;;;5.47;4.45;;;;;;;11.23;100.00;99595.09;5031029;28;20174;-55
2022/11/12 01:14:08;;;;;;;5.20;4.00;;;;;;;11.26;100.00;99597.56;5033369;28;20571;-55
2022/11/12 01:16:38;;;;;;;5.20;4.05;;;;;;;11.30;100.00;99596.44;5034575;28;20643;-55
2022/11/12 01:19:05;;;;;;;4.60;3.78;;;;;;;11.34;100.00;99597.97;5033283;28;20201;-55
2022/11/12 01:21:32;;;;;;;4.65;4.05;;;;;;;11.34;100.00;99585.88;5034478;28;20178;-55
2022/11/12 01:23:59;;;;;;;5.07;4.60;;;;;;;11.32;100.00;99587.69;5034445;28;20344;-55
2022/11/12 01:26:27;;;;;;;5.60;4.57;;;;;;;11.28;100.00;99586.19;5034329;28;20264;-55
2022/11/12 01:28:53;;;;;;;5.05;4.55;;;;;;;11.24;100.00;99581.22;5034332;28;20179;-55
2022/11/12 01:31:24;;;;;;;7.57;5.22;;;;;;;10.98;100.00;99572.22;5034238;28;20189;-55
2022/11/12 01:33:56;;;;;;;8.38;5.07;;;;;;;10.70;100.00;99576.31;5034545;28;20189;-55
2022/11/12 01:36:23;;;;;;;5.25;4.85;;;;;;;10.65;100.00;99580.88;5034304;28;20159;-55
2022/11/12 01:38:49;;;;;;;5.13;4.63;;;;;;;10.60;100.00;99567.31;5034163;28;20178;-54
2022/11/12 01:41:23;;;;;;;5.40;4.85;;;;;;;10.53;100.00;99573.72;5034111;28;20178;-55
2022/11/12 01:44:09;;;;;;;5.28;4.78;;;;;;;10.22;100.00;99565.81;5034222;28;20166;-54
2022/11/12 01:46:42;;;;;;;5.40;4.90;;;;;;;10.37;100.00;99558.13;5034193;28;20209;-55
2022/11/12 01:49:14;;;;;;;4.97;4.45;;;;;;;10.47;100.00;99561.94;5034415;28;20568;-55
2022/11/12 01:51:44;;;;;;;5.60;4.97;;;;;;;10.44;100.00;99563.84;5034019;28;20173;-55
2022/11/12 01:54:12;;;;;;;5.35;4.85;;;;;;;10.52;100.00;99564.28;5034222;28;20174;-55
2022/11/12 01:56:38;;;;;;;5.25;4.75;;;;;;;10.53;100.00;99566.81;5034057;28;20178;-55
2022/11/12 01:59:32;;;;;;;6.50;4.82;;;;;;;10.27;100.00;99561.25;5033799;28;20177;-55
2022/11/12 02:01:58;;;;;;;6.75;4.75;;;;;;;10.21;100.00;99562.38;5033439;28;20206;-55
2022/11/12 02:04:25;;;;;;;6.43;4.97;;;;;;;10.09;100.00;99564.75;5033658;28;20194;-55
2022/11/12 02:06:52;;;;;;;4.90;4.40;;;;;;;10.05;100.00;99553.69;5033510;28;20214;-55
2022/11/12 02:09:18;;;;;;;4.70;4.30;;;;;;;10.06;100.00;99570.03;5033569;28;20200;-55
2022/11/12 02:11:48;;;;;;;5.40;4.80;;;;;;;10.05;100.00;99571.78;5033495;28;20659;-55
2022/11/12 02:14:14;;;;;;;5.03;4.63;;;;;;;9.94;100.00;99568.88;5033829;28;20162;-55
2022/11/12 02:16:42;;;;;;;5.53;4.90;;;;;;;9.88;100.00;99565.72;5033480;28;20163;-55
2022/11/12 02:19:11;;;;;;;6.38;5.05;;;;;;;9.81;100.00;99569.50;5033442;28;20670;-55
2022/11/12 02:21:37;;;;;;;6.10;5.55;;;;;;;9.88;100.00;99566.53;5033359;28;20174;-55
2022/11/12 02:24:22;;;;;;;8.63;5.60;;;;;;;9.90;100.00;99569.06;5032088;28;20166;-55
2022/11/12 02:26:52;;;;;;;6.07;5.47;;;;;;;9.75;100.00;99562.03;5033162;28;20214;-55
2022/11/12 02:29:17;;;;;;;7.72;5.68;;;;;;;9.79;100.00;99560.97;5033215;28;20643;-55
2022/11/12 02:31:43;;;;;;;6.15;5.32;;;;;;;9.88;100.00;99561.38;5033430;28;20178;-55
2022/11/12 02:34:08;;;;;;;6.43;5.82;;;;;;;9.93;100.00;99554.25;5033133;28;20289;-55
2022/11/12 02:36:33;;;;;;;6.90;5.72;;;;;;;9.92;100.00;99567.25;5033319;28;20170;-55
2022/11/12 02:38:59;;;;;;;7.88;5.53;;;;;;;9.87;100.00;99564.06;5033237;28;20186;-54
2022/11/12 02:41:25;;;;;;;5.97;5.25;;;;;;;9.91;100.00;99558.66;5033209;28;20175;-54
2022/11/12 02:43:50;;;;;;;5.60;5.05;;;;;;;9.94;100.00;99568.00;5031790;28;20267;-55
2022/11/12 02:46:16;;;;;;;6.78;6.10;;;;;;;9.91;100.00;99575.91;5032976;28;20327;-55
2022/11/12 02:48:41;;;;;;;5.93;5.32;;;;;;;9.95;100.00;99564.50;5032922;28;20639;-54
2022/11/12 02:51:07;;;;;;;5.90;5.13;;;;;;;10.07;100.00;99563.97;5033218;28;20181;-54
2022/11/12 02:53:33;;;;;;;5.72;5.18;;;;;;;9.98;100.00;99557.44;5032890;28;20180;-55
2022/11/12 02:56:00;;;;;;;6.43;5.05;;;;;;;10.09;100.00;99559.56;5032966;28;20178;-55
2022/11/12 02:58:25;;;;;;;5.18;4.38;;;;;;;10.10;100.00;99569.81;5032960;28;20178;-55
2022/11/12 03:00:51;;;;;;;5.20;4.70;;;;;;;10.07;100.00;99567.41;5032927;28;20221;-55
2022/11/12 03:03:16;;;;;;;5.28;4.78;;;;;;;9.88;100.00;99545.03;5032895;28;20178;-54
2022/11/12 03:05:43;;;;;;;5.45;4.95;;;;;;;9.94;100.00;99560.25;5032824;28;20206;-54
2022/11/12 03:08:09;;;;;;;6.60;5.10;;;;;;;10.01;100.00;99564.22;5032802;28;20183;-55
2022/11/12 03:10:38;;;;;;;6.43;4.97;;;;;;;10.05;100.00;99558.03;5033066;28;20181;-54
2022/11/12 03:13:05;;;;;;;5.90;5.30;;;;;;;10.09;100.00;99562.16;5032958;28;20170;-55
2022/11/12 03:15:31;;;;;;;7.93;5.00;;;;;;;10.04;100.00;99561.53;5031627;28;20236;-55
2022/11/12 03:17:58;;;;;;;6.20;5.13;;;;;;;9.93;100.00;99564.56;5032967;28;20600;-55
2022/11/12 03:20:24;;;;;;;5.35;4.85;;;;;;;9.88;100.00;99570.91;5031666;28;20174;-54
2022/11/12 03:23:04;;;;;;;6.50;5.40;;;;;;;9.69;100.00;99559.75;5031376;28;20186;-55
2022/11/12 03:25:30;;;;;;;7.97;6.25;;;;;;;9.86;100.00;99575.31;5032424;28;20224;-55
2022/11/12 03:28:01;;;;;;;6.40;4.75;;;;;;;9.75;100.00;99569.81;5032400;28;20174;-55
2022/11/12 03:30:29;;;;;;;5.80;5.20;;;;;;;9.78;100.00;99567.91;5032750;28;20244;-55
2022/11/12 03:32:55;;;;;;;6.05;5.45;;;;;;;9.81;100.00;99569.50;5032619;28;20174;-55
2022/11/12 03:35:21;;;;;;;6.75;5.65;;;;;;;9.82;100.00;99574.59;5032277;28;20230;-55
2022/11/12 03:37:46;;;;;;;5.63;4.97;;;;;;;9.86;100.00;99577.88;5031774;28;20206;-55
2022/11/12 03:40:12;;;;;;;6.57;4.90;;;;;;;9.98;100.00;99578.13;5032268;28;20178;-55
2022/11/12 03:42:37;;;;;;;7.93;4.45;;;;;;;9.96;100.00;99571.34;5032227;28;20181;-55
2022/11/12 03:45:03;;;;;;;6.53;4.95;;;;;;;10.07;100.00;99571.72;5031337;28;20177;-55
2022/11/12 03:47:28;;;;;;;5.97;5.47;;;;;;;9.93;100.00;99574.09;5032097;28;20197;-54
2022/11/12 03:49:54;;;;;;;6.50;5.90;;;;;;;9.89;100.00;99578.59;5032418;28;20190;-55
2022/11/12 03:52:19;;;;;;;5.45;4.95;;;;;;;9.96;100.00;99571.34;5032423;28;20178;-55
2022/11/12 03:54:44;;;;;;;5.43;4.90;;;;;;;10.00;100.00;99586.66;5032090;28;20626;-55
2022/11/12 03:57:10;;;;;;;5.53;4.97;;;;;;;9.98;100.00;99587.66;5032524;28;20174;-55
2022/11/12 03:59:35;;;;;;;6.28;5.35;;;;;;;10.00;100.00;99585.81;5031325;28;20170;-55
2022/11/12 04:02:01;;;;;;;6.97;5.60;;;;;;;10.02;100.00;99578.81;5031933;28;20261;-56
2022/11/12 04:08:34;;;;;;;5.50;5.00;;;;;;;9.99;100.00;99590.13;5032044;28;20208;-54
2022/11/12 04:09:55;;;;;;;6.80;5.60;;;;;;;10.03;100.00;99590.81;5032550;28;20668;-55
2022/11/12 04:15:05;;;;;;;5.18;4.70;;;;;;;9.92;100.00;99591.34;5032352;28;20162;-54
2022/11/12 04:22:57;;;;;;;6.93;5.30;;;;;;;9.82;100.00;99591.84;5031794;28;20166;-55
2022/11/12 04:28:07;;;;;;;5.78;4.95;;;;;;;9.74;100.00;99592.22;5032186;28;20555;-54
2022/11/12 04:30:32;;;;;;;5.40;4.90;;;;;;;9.73;100.00;99587.09;5031687;28;20178;-54
2022/11/12 04:32:58;;;;;;;5.10;4.70;;;;;;;9.83;100.00;99593.53;5032018;28;20186;-55
2022/11/12 04:35:26;;;;;;;5.93;4.85;;;;;;;9.88;100.00;99592.41;5032011;28;20174;-55
2022/11/12 04:37:52;;;;;;;5.78;5.20;;;;;;;9.74;100.00;99597.38;5031597;28;20564;-55
2022/11/12 04:45:52;;;;;;;6.20;5.60;;;;;;;9.54;100.00;99599.19;5032148;28;20631;-55
2022/11/12 04:48:19;;;;;;;6.25;5.65;;;;;;;9.50;100.00;99602.00;5032625;28;20209;-55
2022/11/12 04:50:48;;;;;;;5.50;5.00;;;;;;;9.61;100.00;99600.59;5034206;28;20200;-54
2022/11/12 04:53:14;;;;;;;5.57;4.85;;;;;;;9.55;100.00;99600.88;5035443;28;20571;-55
2022/11/12 04:55:40;;;;;;;6.00;5.40;;;;;;;9.52;100.00;99607.00;5035350;28;20639;-55
2022/11/12 04:58:05;;;;;;;7.63;5.07;;;;;;;9.67;100.00;99607.25;5035619;28;20182;-55
2022/11/12 05:00:30;;;;;;;5.72;5.13;;;;;;;9.58;100.00;99603.34;5034010;28;20236;-55
2022/11/12 05:02:56;;;;;;;5.82;5.22;;;;;;;9.81;100.00;99606.53;5035536;28;20565;-55
2022/11/12 05:05:21;;;;;;;5.47;4.93;;;;;;;9.81;100.00;99614.28;5035091;28;20213;-55
2022/11/12 05:07:47;;;;;;;7.95;4.70;;;;;;;9.73;100.00;99606.97;5035051;28;20244;-55
2022/11/12 05:10:12;;;;;;;6.40;4.93;;;;;;;9.58;100.00;99613.66;5034985;28;20186;-54
2022/11/12 05:12:38;;;;;;;5.15;4.65;;;;;;;9.63;100.00;99616.88;5034985;28;20181;-55
2022/11/12 05:15:04;;;;;;;7.28;4.72;;;;;;;9.70;100.00;99618.28;5034940;28;20232;-54
2022/11/12 05:17:29;;;;;;;6.22;5.03;;;;;;;9.75;100.00;99624.91;5035154;28;20239;-55
2022/11/12 05:19:55;;;;;;;5.32;4.82;;;;;;;9.49;100.00;99624.41;5034783;28;20596;-55
2022/11/12 05:22:20;;;;;;;6.05;4.90;;;;;;;9.50;100.00;99633.81;5035189;28;20182;-55
2022/11/12 05:24:45;;;;;;;5.28;4.78;;;;;;;9.38;100.00;99636.97;5034734;28;20185;-55
2022/11/12 05:27:16;;;;;;;6.32;5.25;;;;;;;9.35;100.00;99631.09;5034651;28;20209;-55
2022/11/12 05:29:42;;;;;;;4.75;4.30;;;;;;;9.27;100.00;99631.41;5034742;28;20158;-55
2022/11/12 05:32:10;;;;;;;5.00;4.35;;;;;;;9.13;100.00;99640.66;5034711;28;20189;-55
2022/11/12 05:34:35;;;;;;;5.85;4.80;;;;;;;9.25;100.00;99645.31;5034663;28;20178;-55
2022/11/12 05:37:02;;;;;;;8.05;5.65;;;;;;;9.37;100.00;99649.97;5034567;28;20640;-55
2022/11/12 05:39:28;;;;;;;7.85;5.00;;;;;;;9.40;100.00;99660.13;5034788;28;20672;-55
2022/11/12 05:41:54;;;;;;;5.63;5.00;;;;;;;9.42;100.00;99661.75;5033230;28;20206;-55
2022/11/12 05:44:20;;;;;;;5.97;4.43;;;;;;;9.40;100.00;99663.56;5034696;28;20178;-55
2022/11/12 05:46:45;;;;;;;5.35;4.35;;;;;;;9.43;100.00;99668.59;5033021;28;20206;-54
2022/11/12 05:49:11;;;;;;;6.10;5.28;;;;;;;9.49;100.00;99670.09;5034256;28;20196;-55
2022/11/12 05:51:37;;;;;;;5.38;4.88;;;;;;;9.52;100.00;99681.13;5034492;28;20202;-55
2022/11/12 05:54:03;;;;;;;6.22;5.63;;;;;;;9.64;100.00;99683.97;5034390;28;20182;-55
2022/11/12 05:56:29;;;;;;;8.30;6.68;;;;;;;9.69;100.00;99692.38;5034044;28;20171;-55
2022/11/12 05:58:55;;;;;;;6.35;5.75;;;;;;;9.74;100.00;99703.34;5033661;28;20182;-55
2022/11/12 06:01:20;;;;;;;5.40;4.90;;;;;;;9.81;100.00;99703.91;5033960;28;20190;-55
2022/11/12 06:03:46;;;;;;;4.35;3.95;;;;;;;9.80;100.00;99710.81;5033837;28;20218;-55
2022/11/12 06:06:11;;;;;;;4.68;4.28;;;;;;;9.89;100.00;99717.34;5033540;28;20210;-55
2022/11/12 06:08:37;;;;;;;4.53;4.13;;;;;;;9.83;100.00;99722.78;5033671;28;20174;-55
2022/11/12 06:11:02;;;;;;;3.63;3.33;;;;;;;9.72;100.00;99719.81;5033628;28;20193;-55
2022/11/12 06:13:28;;;;;;;4.50;3.58;;;;;;;9.40;100.00;99730.75;5033834;28;20178;-55
2022/11/12 06:15:54;;;;;;;6.88;4.07;;;;;;;9.05;100.00;99720.22;5033642;28;20619;-55
2022/11/12 06:18:19;;;;;;;5.32;3.45;;;;;;;8.98;100.00;99724.78;5032426;28;20636;-55
2022/11/12 06:21:18;;;;;;;5.93;4.15;;;;;;;8.96;100.00;99733.50;5033503;28;20208;-55
2022/11/12 06:23:30;;;;;;;6.55;4.18;;;;;;;9.10;100.00;99738.94;5033404;28;20187;-55
2022/11/12 06:25:56;;;;;;;4.80;2.80;;;;;;;9.23;100.00;99738.38;5033353;28;20308;-54
2022/11/12 06:28:21;;;;;;;4.78;3.85;;;;;;;9.27;100.00;99745.06;5033663;28;20249;-55
2022/11/12 06:30:46;;;;;;;4.40;3.55;;;;;;;9.27;100.00;99742.47;5033393;28;20664;-55
2022/11/12 06:33:12;;;;;;;10.07;5.22;;;;;;;9.38;100.00;99745.44;5033581;28;20186;-55
2022/11/12 06:35:37;;;;;;;8.98;4.47;;;;;;;9.35;100.00;99740.44;5033560;28;20178;-55
2022/11/12 06:38:03;;;;;;;3.60;3.15;;;;;;;9.16;100.00;99749.84;5033434;28;20560;-55
2022/11/12 06:40:28;;;;;;;4.00;3.10;;;;;;;9.13;100.00;99749.97;5033220;28;20204;-55
2022/11/12 06:42:57;;;;;;;3.75;3.20;;;;;;;9.08;100.00;99740.75;5033481;28;20257;-55
2022/11/12 06:45:23;;;;;;;2.72;2.50;;;;;;;8.94;100.00;99745.63;5033087;28;20240;-55
2022/11/12 06:47:49;;;;;;;3.45;2.42;;;;;;;8.87;100.00;99755.38;5033175;28;20297;-55
2022/11/12 06:50:14;;;;;;;4.07;2.58;;;;;;;9.10;100.00;99749.25;5032909;28;20269;-54
2022/11/12 06:52:40;;;;;;;4.57;2.20;;;;;;;9.35;100.00;99749.91;5033241;28;20186;-55
2022/11/12 06:55:07;;;;;;;2.08;1.98;;;;;;;9.53;100.00;99749.97;5032804;28;20647;-55
2022/11/12 06:57:33;;;;;;;2.13;2.03;;;;;;;9.70;100.00;99744.91;5032773;28;20266;-55
2022/11/12 06:59:58;;;;;;;1.80;1.70;;;;;;;9.76;100.00;99749.81;5033110;28;20272;-55
2022/11/12 07:02:23;;;;;;;1.92;1.70;;;;;;;9.72;100.00;99747.44;5031599;28;20616;-55
2022/11/12 07:04:49;;;;;;;3.33;2.30;;;;;;;9.52;100.00;99742.28;5032605;28;20198;-55
2022/11/12 07:07:14;;;;;;;2.20;2.00;;;;;;;9.57;100.00;99754.09;5032467;28;20213;-55
2022/11/12 07:09:39;;;;;;;3.33;1.88;;;;;;;9.56;100.00;99749.00;5032885;28;20303;-55
2022/11/12 07:12:05;;;;;;;5.30;2.42;;;;;;;9.46;100.00;99758.91;5032200;28;20532;-55
2022/11/12 07:14:31;;;;;;;3.47;3.17;;;;;;;9.42;100.00;99762.50;5031289;28;20649;-55
2022/11/12 07:16:56;;;;;;;44.25;21.02;;;;;;;9.45;100.00;99761.53;5033027;28;20223;-55
2022/11/12 07:19:21;;;;;;;26.92;12.75;;;;;;;9.50;100.00;99768.16;5032435;28;20175;-55
2022/11/12 07:21:47;;;;;;;42.58;22.27;;;;;;;9.59;100.00;99760.03;5032580;28;20175;-55
2022/11/12 07:24:12;;;;;;;16.65;10.27;;;;;;;9.58;100.00;99763.53;5032672;28;20182;-55
2022/11/12 07:26:37;;;;;;;10.95;7.05;;;;;;;9.52;100.00;99759.44;5032265;28;20204;-55
2022/11/12 07:29:03;;;;;;;4.32;3.70;;;;;;;9.41;100.00;99763.41;5032452;28;20174;-55
2022/11/12 07:31:28;;;;;;;3.33;1.80;;;;;;;9.45;100.00;99761.53;5032428;28;20188;-55
2022/11/12 07:33:54;;;;;;;2.30;2.10;;;;;;;9.49;100.00;99757.94;5032673;28;20269;-55
2022/11/12 07:36:20;;;;;;;9.20;5.15;;;;;;;9.53;100.00;99757.72;5032358;28;20174;-55
2022/11/12 07:38:49;;;;;;;12.70;6.68;;;;;;;9.58;100.00;99753.19;5032588;28;20179;-55
2022/11/12 07:41:17;;;;;;;11.57;5.78;;;;;;;9.56;100.00;99760.16;5032426;28;20174;-55
2022/11/12 07:43:45;;;;;;;31.35;16.42;;;;;;;9.21;100.00;99757.41;5032190;28;20180;-55
2022/11/12 07:46:25;;;;;;;14.82;8.38;;;;;;;9.09;100.00;99758.72;5032211;28;20198;-55
2022/11/12 07:48:50;;;;;;;26.13;12.70;;;;;;;9.17;100.00;99761.00;5032286;28;20253;-55
2022/11/12 07:51:18;;;;;;;23.35;9.82;;;;;;;9.05;100.00;99757.19;5032338;28;20350;-55
2022/11/12 07:53:44;;;;;;;23.38;9.68;;;;;;;8.91;100.00;99753.50;5032391;28;20593;-55
2022/11/12 07:56:14;;;;;;;20.63;8.45;;;;;;;8.97;100.00;99756.66;5032265;28;20185;-55
2022/11/12 07:58:40;;;;;;;23.90;8.10;;;;;;;8.91;100.00;99756.91;5032248;28;20249;-55
2022/11/12 08:01:30;;;;;;;4.07;3.28;;;;;;;8.81;100.00;99753.03;5032234;28;20186;-55
2022/11/12 08:03:56;;;;;;;22.80;9.07;;;;;;;8.75;100.00;99753.25;5032219;28;20178;-55
2022/11/12 08:06:22;;;;;;;14.60;5.80;;;;;;;8.81;100.00;99750.47;5031705;28;20725;-55
2022/11/12 08:08:51;;;;;;;13.82;6.25;;;;;;;8.82;100.00;99754.72;5031870;28;20174;-55
2022/11/12 08:11:17;;;;;;;16.48;7.35;;;;;;;8.82;100.00;99757.28;5031842;28;20175;-56
2022/11/12 08:13:42;;;;;;;12.73;6.28;;;;;;;8.77;100.00;99763.53;5032049;28;20564;-55
2022/11/12 08:16:08;;;;;;;14.02;7.20;;;;;;;8.85;100.00;99762.31;5031653;28;20643;-55
2022/11/12 08:18:34;;;;;;;13.15;7.20;;;;;;;8.89;100.00;99758.72;5031961;28;20171;-55
2022/11/12 08:21:00;;;;;;;11.50;6.05;;;;;;;9.00;100.00;99758.28;5031937;28;20178;-55
2022/11/12 08:23:26;;;;;;;14.52;5.28;;;;;;;9.00;100.00;99764.28;5034505;28;20659;-56
2022/11/12 08:25:51;;;;;;;5.60;4.10;;;;;;;8.96;100.00;99757.56;5036029;28;20206;-55
2022/11/12 08:28:16;;;;;;;7.40;3.63;;;;;;;8.88;100.00;99759.63;5035955;28;20658;-55
2022/11/12 08:30:42;;;;;;;4.30;3.50;;;;;;;9.02;100.00;99765.06;5018179;28;20182;-55
2022/11/12 08:33:07;;;;;;;4.97;3.95;;;;;;;9.06;100.00;99763.19;5035770;28;20320;-55
2022/11/12 08:35:33;;;;;;;7.82;5.30;;;;;;;9.03;100.00;99764.16;5034539;28;20182;-55
2022/11/12 08:38:00;;;;;;;7.45;5.07;;;;;;;8.96;100.00;99773.06;5035969;28;20223;-55
2022/11/12 08:40:27;;;;;;;9.48;5.55;;;;;;;8.96;100.00;99777.41;5035773;28;20177;-56
2022/11/12 08:42:57;;;;;;;4.13;3.67;;;;;;;8.99;100.00;99767.78;5035650;28;20174;-55
2022/11/12 08:45:23;;;;;;;4.55;3.92;;;;;;;8.98;100.00;99773.81;5035862;28;20247;-55
2022/11/12 08:47:48;;;;;;;3.70;3.40;;;;;;;9.03;100.00;99777.06;5035468;28;20678;-55
2022/11/12 08:50:14;;;;;;;4.82;4.25;;;;;;;9.04;100.00;99772.75;5035545;28;20204;-55
2022/11/12 08:52:39;;;;;;;5.55;3.60;;;;;;;9.14;100.00;99781.81;5035865;28;20181;-55
2022/11/12 08:55:05;;;;;;;2.90;2.70;;;;;;;9.19;100.00;99767.78;5035690;28;20178;-55
2022/11/12 08:57:31;;;;;;;2.72;2.50;;;;;;;9.31;100.00;99774.22;5034040;28;20235;-55
2022/11/12 08:59:56;;;;;;;2.35;2.15;;;;;;;9.34;100.00;99774.91;5035437;28;20170;-55
2022/11/12 09:02:21;;;;;;;3.08;2.78;;;;;;;9.46;100.00;99774.41;5035541;28;20177;-55
2022/11/12 09:04:47;;;;;;;3.83;2.85;;;;;;;9.46;100.00;99774.41;5035093;28;20760;-55
2022/11/12 09:07:12;;;;;;;5.10;2.45;;;;;;;9.49;100.00;99781.19;5033684;28;20214;-55
2022/11/12 09:09:38;;;;;;;2.40;2.20;;;;;;;9.51;100.00;99771.59;5035108;28;20170;-55
2022/11/12 09:12:03;;;;;;;2.75;2.55;;;;;;;9.49;100.00;99770.84;5035194;28;20600;-55
2022/11/12 09:14:28;;;;;;;6.22;3.97;;;;;;;9.34;100.00;99764.59;5034868;28;20207;-55
2022/11/12 09:16:54;;;;;;;3.25;2.95;;;;;;;9.42;100.00;99766.81;5034915;28;20163;-55
2022/11/12 09:19:19;;;;;;;2.92;2.70;;;;;;;9.37;100.00;99766.19;5034995;28;20167;-55
2022/11/12 09:21:45;;;;;;;2.13;2.03;;;;;;;9.33;100.00;99773.22;5034823;28;20182;-55
2022/11/12 09:24:10;;;;;;;2.10;2.00;;;;;;;9.35;100.00;99776.59;5034809;28;20189;-55
2022/11/12 09:26:35;;;;;;;2.00;1.90;;;;;;;9.39;100.00;99766.97;5034913;28;20270;-55
2022/11/12 09:29:01;;;;;;;1.85;1.75;;;;;;;9.39;100.00;99765.19;5035073;28;20253;-55
2022/11/12 09:31:26;;;;;;;3.60;2.50;;;;;;;9.43;100.00;99759.00;5034731;28;20185;-55
2022/11/12 09:33:52;;;;;;;4.15;2.33;;;;;;;9.49;100.00;99763.91;5034037;28;20171;-55
2022/11/12 09:36:17;;;;;;;2.53;2.30;;;;;;;9.40;100.00;99756.56;5034694;28;20163;-55
2022/11/12 09:38:43;;;;;;;6.13;3.30;;;;;;;9.42;100.00;99762.50;5034568;28;20257;-55
2022/11/12 09:41:37;;;;;;;4.13;3.00;;;;;;;9.46;100.00;99761.47;5034805;28;20611;-55
2022/11/12 09:44:08;;;;;;;2.95;2.67;;;;;;;9.50;100.00;99768.16;5034714;28;20190;-55
2022/11/12 09:47:03;;;;;;;1.70;1.60;;;;;;;9.58;100.00;99764.34;5034390;28;20194;-55
2022/11/12 09:49:38;;;;;;;3.78;2.60;;;;;;;9.49;100.00;99765.69;5034194;28;20236;-55
2022/11/12 09:52:13;;;;;;;4.10;2.72;;;;;;;9.48;100.00;99769.13;5034451;28;20244;-55
2022/11/12 09:54:41;;;;;;;7.28;3.22;;;;;;;9.51;100.00;99758.69;5034325;28;20161;-56
2022/11/12 09:57:11;;;;;;;2.58;2.38;;;;;;;9.32;100.00;99734.56;5034461;28;20570;-55
2022/11/12 09:59:40;;;;;;;3.90;3.17;;;;;;;9.38;100.00;99750.63;5034507;28;20163;-55
2022/11/12 10:02:24;;;;;;;1.80;1.70;;;;;;;9.46;100.00;99755.47;5034463;28;20240;-55
2022/11/12 10:04:56;;;;;;;1.70;1.60;;;;;;;9.51;100.00;99758.69;5034381;28;20208;-55
2022/11/12 10:07:33;;;;;;;1.70;1.60;;;;;;;9.51;100.00;99767.28;5034288;28;20206;-55
2022/11/12 10:10:04;;;;;;;1.77;1.67;;;;;;;9.44;100.00;99770.19;5034151;28;20174;-55
2022/11/12 10:12:55;;;;;;;1.65;1.55;;;;;;;9.43;100.00;99759.00;5034285;28;20182;-55
2022/11/12 10:18:47;;;;;;;7.30;5.55;;;;;;;9.47;100.00;99759.72;5034153;28;20177;-55
2022/11/12 10:21:35;;;;;;;4.45;3.05;;;;;;;9.50;100.00;99755.25;5034407;28;20186;-55
2022/11/12 10:24:02;;;;;;;3.15;2.90;;;;;;;9.52;100.00;99756.06;5033528;28;20177;-55
2022/11/12 10:26:30;;;;;;;3.03;2.83;;;;;;;9.52;100.00;99755.19;5033769;28;20206;-56
2022/11/12 10:29:23;;;;;;;4.60;3.63;;;;;;;9.55;100.00;99752.50;5033962;28;20552;-55
2022/11/12 10:31:49;;;;;;;7.57;5.15;;;;;;;9.51;100.00;99735.44;5033660;28;20182;-55
2022/11/12 10:34:18;;;;;;;3.75;3.45;;;;;;;9.64;100.00;99753.75;5033858;28;20699;-55
2022/11/12 10:36:49;;;;;;;6.30;4.68;;;;;;;9.62;100.00;99743.56;5033561;28;20228;-55
2022/11/12 10:39:36;;;;;;;9.43;6.22;;;;;;;9.64;100.00;99750.34;5033785;28;20173;-56
2022/11/12 10:42:11;;;;;;;6.07;4.60;;;;;;;9.72;100.00;99750.03;5033945;28;20178;-55
2022/11/12 10:44:38;;;;;;;8.48;7.18;;;;;;;9.73;100.00;99753.38;5033415;28;20178;-55
2022/11/12 10:47:25;;;;;;;3.40;3.10;;;;;;;9.80;100.00;99764.28;5032505;28;20276;-55
2022/11/12 10:50:40;;;;;;;3.72;3.42;;;;;;;9.81;100.00;99758.22;5033257;28;20663;-56
2022/11/12 10:53:09;;;;;;;3.28;2.97;;;;;;;9.70;100.00;99748.31;5032639;28;20232;-55
2022/11/12 10:55:37;;;;;;;5.10;3.83;;;;;;;9.72;100.00;99752.59;5033161;28;20185;-56
2022/11/12 10:58:08;;;;;;;4.32;3.75;;;;;;;9.71;100.00;99756.94;5033076;28;20321;-56
2022/11/12 11:00:34;;;;;;;6.60;5.35;;;;;;;9.76;100.00;99750.63;5033394;28;20245;-55
2022/11/12 11:03:04;;;;;;;6.25;3.95;;;;;;;9.77;100.00;99752.34;5033031;28;20171;-55
2022/11/12 11:05:35;;;;;;;4.75;4.22;;;;;;;9.71;100.00;99754.34;5032767;28;20784;-55
2022/11/12 11:08:03;;;;;;;9.93;5.10;;;;;;;9.79;100.00;99753.09;5033028;28;20208;-55
2022/11/12 11:10:31;;;;;;;8.10;5.60;;;;;;;9.81;100.00;99755.63;5032901;28;20175;-55
2022/11/12 11:13:08;;;;;;;7.35;4.65;;;;;;;9.83;100.00;99744.31;5032853;28;20178;-55
2022/11/12 11:15:34;;;;;;;6.45;5.25;;;;;;;9.92;100.00;99743.88;5032882;28;20174;-55
2022/11/12 11:18:00;;;;;;;7.70;5.82;;;;;;;9.93;100.00;99742.16;5032778;28;20174;-55
2022/11/12 11:20:39;;;;;;;9.18;6.45;;;;;;;9.88;100.00;99744.09;5032783;28;20174;-55
2022/11/12 11:23:21;;;;;;;12.88;9.63;;;;;;;9.96;100.00;99749.75;5032696;28;20547;-55
2022/11/12 11:25:52;;;;;;;15.10;9.25;;;;;;;9.72;100.00;99744.84;5032843;28;20162;-55
2022/11/12 11:29:10;;;;;;;17.25;15.40;;;;;;;9.66;100.00;99745.94;5031408;28;20167;-55
2022/11/12 11:31:48;;;;;;;13.32;11.55;;;;;;;9.65;100.00;99741.69;5016858;28;20190;-56
2022/11/12 11:34:33;;;;;;;16.35;11.95;;;;;;;9.84;100.00;99739.97;5032781;28;20162;-56
2022/11/12 11:37:19;;;;;;;12.95;10.55;;;;;;;10.06;100.00;99745.88;5032723;28;20158;-55
2022/11/12 11:40:02;;;;;;;9.68;8.35;;;;;;;10.24;100.00;99751.06;5032204;28;20224;-56
2022/11/12 11:42:40;;;;;;;10.50;8.45;;;;;;;10.37;100.00;99751.31;5032699;28;20162;-55
2022/11/12 11:45:08;;;;;;;10.88;9.52;;;;;;;10.30;100.00;99745.63;5032623;28;20161;-55
2022/11/12 11:48:17;;;;;;;11.40;9.60;;;;;;;10.36;100.00;99740.16;5032338;28;20198;-55
2022/11/12 11:50:58;;;;;;;13.98;9.40;;;;;;;10.08;100.00;99738.88;5030902;28;20190;-56
2022/11/12 11:53:40;;;;;;;14.05;9.95;;;;;;;9.99;100.00;99726.38;5032205;28;20158;-55
2022/11/12 11:56:32;;;;;;;14.80;12.38;;;;;;;9.69;100.00;99725.16;5032447;28;20163;-55
2022/11/12 11:59:19;;;;;;;11.52;8.73;;;;;;;9.88;100.00;99723.41;5031780;28;20273;-56